Port Alto, Texas
Current Conditions -  °F | °C
As of 8:10 AM on Friday 24 Oct 2014 (Local Time) from KPKV Reporting Station
Clear Clear  
Wind Chill: 60°   Ceiling: Unl
Heat Index: 60°   Visibility: 10mi
Dew Point: 58°   Wind: 0mph
Humidity: 92%   Direction: NA
Pressure: 30.13"   Gusts: NA
Location:  28.5342°N, 96.663°W
Report Text: KPKV 241310Z AUTO 00000KT 10SM CLR 16/14 A3013 RMK AO2 T01560143
Loading
Personal Weather Stations






























Interactive Weather Map
Tropical Storm Tracking
New forecast layout! Learn more

10-Day Weather Forecast

Advertisements
Track Severe Weather on mobile